Terminal Aerodrome Forecast
Issued by NWS

Home | Current Version | Previous Version | Text Only | Print | Product List | Glossary Off
Versions: 1 2 3 4 5 6 7 8 9 10 11 12 13 14 15 16 17 18 19 20

000
FTUS43 KICT 260520
TAFHUT
TAF
KHUT 260520Z 2606/2706 06006KT P6SM VCTS SCT030 BKN060CB
      TEMPO 2606/2608 2SM +TSRA
     FM261200 VRB04KT P6SM SCT020 BKN250
     FM261600 13009KT P6SM SCT030=

USA.gov is the U.S. government's official web portal to all federal, state and local government web resources and services.